Time,TemperatureF,DewpointF,PressureIn,WindDirection,WindDirectionDegrees,WindSpeedMPH,WindSpeedGustMPH,Humidity,HourlyPrecipIn,Conditions,Clouds,dailyrainin,SolarRadiationWatts/m^2,SoftwareType,DateUTC
2013-05-23 00:11:00,53.0,43.0,-100.00,NNE,26,9.0,21.0,70,0.00,,,0.19,1.000000,,2013-05-23 05:11:00,
2013-05-23 00:22:00,53.0,43.0,-100.00,NNE,26,9.0,21.0,70,0.00,,,0.19,1.000000,,2013-05-23 05:22:00,
2013-05-23 00:32:00,53.0,43.0,-100.00,NNE,26,9.0,21.0,70,0.00,,,0.19,1.000000,,2013-05-23 05:32:00,
2013-05-23 00:42:00,53.0,43.0,-100.00,NNE,26,9.0,21.0,70,0.00,,,0.19,1.000000,,2013-05-23 05:42:00,
2013-05-23 01:12:00,52.0,44.0,-100.00,NNE,26,10.0,14.0,74,0.00,,,0.19,1.000000,,2013-05-23 06:12:00,
2013-05-23 01:21:00,52.0,44.0,-100.00,NNE,26,10.0,14.0,74,0.00,,,0.19,1.000000,,2013-05-23 06:21:00,
2013-05-23 01:32:00,52.0,44.0,-100.00,NNE,26,10.0,14.0,74,0.00,,,0.19,1.000000,,2013-05-23 06:32:00,
2013-05-23 01:42:00,52.0,44.0,-100.00,NNE,26,10.0,14.0,74,0.00,,,0.19,1.000000,,2013-05-23 06:42:00,
2013-05-23 02:11:00,50.0,44.0,-100.00,NNE,20,9.0,14.0,80,0.00,,,0.19,1.000000,,2013-05-23 07:11:00,
2013-05-23 02:21:00,50.0,44.0,-100.00,NNE,20,9.0,14.0,80,0.00,,,0.19,1.000000,,2013-05-23 07:21:00,
2013-05-23 02:32:00,50.0,44.0,-100.00,NNE,20,9.0,14.0,80,0.00,,,0.19,1.000000,,2013-05-23 07:32:00,
2013-05-23 02:42:00,50.0,44.0,-100.00,NNE,20,9.0,14.0,80,0.00,,,0.19,1.000000,,2013-05-23 07:42:00,
2013-05-23 03:11:00,49.0,44.0,-100.00,NNE,19,11.0,17.0,84,0.00,,,0.19,1.000000,,2013-05-23 08:11:00,
2013-05-23 03:22:00,49.0,44.0,-100.00,NNE,19,11.0,17.0,84,0.00,,,0.19,1.000000,,2013-05-23 08:22:00,
2013-05-23 03:32:00,49.0,44.0,-100.00,NNE,19,11.0,17.0,84,0.00,,,0.19,1.000000,,2013-05-23 08:32:00,
2013-05-23 03:42:00,49.0,44.0,-100.00,NNE,19,11.0,17.0,84,0.00,,,0.19,1.000000,,2013-05-23 08:42:00,
2013-05-23 04:11:00,47.0,43.0,-100.00,NNE,22,11.0,19.0,86,0.00,,,0.19,1.000000,,2013-05-23 09:11:00,
2013-05-23 04:21:00,47.0,43.0,-100.00,NNE,22,11.0,19.0,86,0.00,,,0.19,1.000000,,2013-05-23 09:21:00,
2013-05-23 04:33:00,47.0,43.0,-100.00,NNE,22,11.0,19.0,86,0.00,,,0.19,1.000000,,2013-05-23 09:33:00,
2013-05-23 04:42:00,47.0,43.0,-100.00,NNE,22,11.0,19.0,86,0.00,,,0.19,1.000000,,2013-05-23 09:42:00,
2013-05-23 05:12:00,46.0,42.0,-100.00,NNE,22,11.0,16.0,86,0.00,,,0.19,1.000000,,2013-05-23 10:12:00,
2013-05-23 05:22:00,46.0,42.0,-100.00,NNE,22,11.0,16.0,86,0.00,,,0.19,1.000000,,2013-05-23 10:22:00,
2013-05-23 05:32:00,46.0,42.0,-100.00,NNE,22,11.0,16.0,86,0.00,,,0.19,1.000000,,2013-05-23 10:32:00,
2013-05-23 05:42:00,46.0,42.0,-100.00,NNE,22,11.0,16.0,86,0.00,,,0.19,1.000000,,2013-05-23 10:42:00,
2013-05-23 06:11:00,45.0,40.0,-100.00,North,9,11.0,17.0,83,0.00,,,0.19,3.000000,,2013-05-23 11:11:00,
2013-05-23 06:22:00,45.0,40.0,-100.00,North,9,11.0,17.0,83,0.00,,,0.19,3.000000,,2013-05-23 11:22:00,
2013-05-23 06:32:00,45.0,40.0,-100.00,North,9,11.0,17.0,83,0.00,,,0.19,3.000000,,2013-05-23 11:32:00,
2013-05-23 06:42:00,45.0,40.0,-100.00,North,9,11.0,17.0,83,0.00,,,0.19,3.000000,,2013-05-23 11:42:00,
2013-05-23 07:12:00,46.0,39.0,-100.00,North,10,10.0,17.0,77,0.00,,,0.19,69.000000,,2013-05-23 12:12:00,
2013-05-23 07:21:00,46.0,39.0,-100.00,North,10,10.0,17.0,77,0.00,,,0.19,69.000000,,2013-05-23 12:21:00,
2013-05-23 07:32:00,46.0,39.0,-100.00,North,10,10.0,17.0,77,0.00,,,0.19,69.000000,,2013-05-23 12:32:00,
2013-05-23 07:42:00,46.0,39.0,-100.00,North,10,10.0,17.0,77,0.00,,,0.19,69.000000,,2013-05-23 12:42:00,
2013-05-23 08:11:00,47.0,38.0,-100.00,NNE,25,11.0,20.0,70,0.00,,,0.18,236.000000,,2013-05-23 13:11:00,
2013-05-23 08:22:00,47.0,38.0,-100.00,NNE,25,11.0,20.0,70,0.00,,,0.18,236.000000,,2013-05-23 13:22:00,
2013-05-23 08:32:00,47.0,38.0,-100.00,NNE,25,11.0,20.0,70,0.00,,,0.18,236.000000,,2013-05-23 13:32:00,
2013-05-23 08:42:00,47.0,38.0,-100.00,NNE,25,11.0,20.0,70,0.00,,,0.18,236.000000,,2013-05-23 13:42:00,
2013-05-23 09:11:00,49.0,37.0,-100.00,NNE,33,11.0,20.0,63,0.00,,,0.17,430.000000,,2013-05-23 14:11:00,
2013-05-23 09:21:00,49.0,37.0,-100.00,NNE,33,11.0,20.0,63,0.00,,,0.17,430.000000,,2013-05-23 14:21:00,
2013-05-23 09:32:00,49.0,37.0,-100.00,NNE,33,11.0,20.0,63,0.00,,,0.17,430.000000,,2013-05-23 14:32:00,
2013-05-23 09:42:00,49.0,37.0,-100.00,NNE,33,11.0,20.0,63,0.00,,,0.17,430.000000,,2013-05-23 14:42:00,
2013-05-23 10:11:00,51.0,36.0,-100.00,NNE,31,12.0,19.0,56,0.00,,,0.17,616.000000,,2013-05-23 15:11:00,
2013-05-23 10:21:00,51.0,36.0,-100.00,NNE,31,12.0,19.0,56,0.00,,,0.17,616.000000,,2013-05-23 15:21:00,
2013-05-23 10:33:00,51.0,36.0,-100.00,NNE,31,12.0,19.0,56,0.00,,,0.17,616.000000,,2013-05-23 15:33:00,
2013-05-23 10:42:00,51.0,36.0,-100.00,NNE,31,12.0,19.0,56,0.00,,,0.17,616.000000,,2013-05-23 15:42:00,
2013-05-23 11:12:00,54.0,35.0,-100.00,North,0,12.0,22.0,48,0.00,,,0.17,777.000000,,2013-05-23 16:12:00,
2013-05-23 11:23:00,54.0,35.0,-100.00,North,0,12.0,22.0,48,0.00,,,0.17,777.000000,,2013-05-23 16:23:00,
2013-05-23 11:33:00,54.0,35.0,-100.00,North,0,12.0,22.0,48,0.00,,,0.17,777.000000,,2013-05-23 16:33:00,
2013-05-23 11:42:00,54.0,35.0,-100.00,North,0,12.0,22.0,48,0.00,,,0.17,777.000000,,2013-05-23 16:42:00,
2013-05-23 12:11:00,56.0,35.0,-100.00,NNE,17,11.0,20.0,45,0.00,,,0.14,891.000000,,2013-05-23 17:11:00,
2013-05-23 12:23:00,56.0,35.0,-100.00,NNE,17,11.0,20.0,45,0.00,,,0.14,891.000000,,2013-05-23 17:23:00,
2013-05-23 12:33:00,56.0,35.0,-100.00,NNE,17,11.0,20.0,45,0.00,,,0.14,891.000000,,2013-05-23 17:33:00,
2013-05-23 12:43:00,56.0,35.0,-100.00,NNE,17,11.0,20.0,45,0.00,,,0.14,891.000000,,2013-05-23 17:43:00,
2013-05-23 13:11:00,58.0,36.0,-100.00,North,357,11.0,17.0,44,0.00,,,0.09,952.000000,,2013-05-23 18:11:00,
2013-05-23 13:22:00,58.0,36.0,-100.00,North,357,11.0,17.0,44,0.00,,,0.09,952.000000,,2013-05-23 18:22:00,
2013-05-23 13:32:00,58.0,36.0,-100.00,North,357,11.0,17.0,44,0.00,,,0.09,952.000000,,2013-05-23 18:32:00,
2013-05-23 13:42:00,58.0,36.0,-100.00,North,357,11.0,17.0,44,0.00,,,0.09,952.000000,,2013-05-23 18:42:00,
2013-05-23 14:11:00,60.0,34.0,-100.00,NNE,22,10.0,17.0,38,0.00,,,0.08,964.000000,,2013-05-23 19:11:00,
2013-05-23 14:21:00,60.0,34.0,-100.00,NNE,22,10.0,17.0,38,0.00,,,0.08,964.000000,,2013-05-23 19:21:00,
2013-05-23 14:32:00,60.0,34.0,-100.00,NNE,22,10.0,17.0,38,0.00,,,0.08,964.000000,,2013-05-23 19:32:00,
2013-05-23 14:42:00,60.0,34.0,-100.00,NNE,22,10.0,17.0,38,0.00,,,0.08,964.000000,,2013-05-23 19:42:00,
2013-05-23 15:11:00,62.0,33.0,-100.00,NNE,26,9.0,17.0,33,0.00,,,0.06,926.000000,,2013-05-23 20:11:00,
2013-05-23 15:21:00,62.0,33.0,-100.00,NNE,26,9.0,17.0,33,0.00,,,0.06,926.000000,,2013-05-23 20:21:00,
2013-05-23 15:32:00,62.0,33.0,-100.00,NNE,26,9.0,17.0,33,0.00,,,0.06,926.000000,,2013-05-23 20:32:00,
2013-05-23 15:42:00,62.0,33.0,-100.00,NNE,26,9.0,17.0,33,0.00,,,0.06,926.000000,,2013-05-23 20:42:00,
2013-05-23 16:11:00,63.0,31.0,-100.00,NE,51,11.0,19.0,30,0.00,,,0.02,838.000000,,2013-05-23 21:11:00,
2013-05-23 16:21:00,63.0,31.0,-100.00,NE,51,11.0,19.0,30,0.00,,,0.02,838.000000,,2013-05-23 21:21:00,
2013-05-23 16:32:00,63.0,31.0,-100.00,NE,51,11.0,19.0,30,0.00,,,0.02,838.000000,,2013-05-23 21:32:00,
2013-05-23 16:43:00,63.0,31.0,-100.00,NE,51,11.0,19.0,30,0.00,,,0.02,838.000000,,2013-05-23 21:43:00,
2013-05-23 17:12:00,64.0,32.0,-100.00,NNE,23,10.0,17.0,30,0.00,,,-99.99,703.000000,,2013-05-23 22:12:00,
2013-05-23 17:22:00,64.0,32.0,-100.00,NNE,23,10.0,17.0,30,0.00,,,-99.99,703.000000,,2013-05-23 22:22:00,
2013-05-23 17:33:00,64.0,32.0,-100.00,NNE,23,10.0,17.0,30,0.00,,,-99.99,703.000000,,2013-05-23 22:33:00,
2013-05-23 17:42:00,64.0,32.0,-100.00,NNE,23,10.0,17.0,30,0.00,,,-99.99,703.000000,,2013-05-23 22:42:00,
2013-05-23 18:11:00,65.0,31.0,-100.00,ENE,62,8.0,18.0,28,0.00,,,0.00,537.000000,,2013-05-23 23:11:00,
2013-05-23 18:21:00,65.0,31.0,-100.00,ENE,62,8.0,18.0,28,0.00,,,0.00,537.000000,,2013-05-23 23:21:00,
2013-05-23 18:32:00,65.0,31.0,-100.00,ENE,62,8.0,18.0,28,0.00,,,0.00,537.000000,,2013-05-23 23:32:00,
2013-05-23 18:42:00,65.0,31.0,-100.00,ENE,62,8.0,18.0,28,0.00,,,0.00,537.000000,,2013-05-23 23:42:00,
2013-05-23 19:12:00,64.0,30.0,-100.00,ENE,73,9.0,16.0,28,0.00,,,0.00,356.000000,,2013-05-24 00:12:00,
2013-05-23 19:21:00,64.0,30.0,-100.00,ENE,73,9.0,16.0,28,0.00,,,0.00,356.000000,,2013-05-24 00:21:00,
2013-05-23 19:32:00,64.0,30.0,-100.00,ENE,73,9.0,16.0,28,0.00,,,0.00,356.000000,,2013-05-24 00:32:00,
2013-05-23 19:42:00,64.0,30.0,-100.00,ENE,73,9.0,16.0,28,0.00,,,0.00,356.000000,,2013-05-24 00:42:00,
2013-05-23 20:12:00,62.0,28.0,-100.00,NE,56,9.0,15.0,27,0.00,,,0.00,181.000000,,2013-05-24 01:12:00,
2013-05-23 20:22:00,62.0,28.0,-100.00,NE,56,9.0,15.0,27,0.00,,,0.00,181.000000,,2013-05-24 01:22:00,
2013-05-23 20:32:00,62.0,28.0,-100.00,NE,56,9.0,15.0,27,0.00,,,0.00,181.000000,,2013-05-24 01:32:00,
2013-05-23 20:42:00,62.0,28.0,-100.00,NE,56,9.0,15.0,27,0.00,,,0.00,181.000000,,2013-05-24 01:42:00,
2013-05-23 21:11:00,58.0,30.0,-100.00,NNE,31,4.0,12.0,34,0.00,,,0.00,34.000000,,2013-05-24 02:11:00,
2013-05-23 21:21:00,58.0,30.0,-100.00,NNE,31,4.0,12.0,34,0.00,,,0.00,34.000000,,2013-05-24 02:21:00,
2013-05-23 21:32:00,58.0,30.0,-100.00,NNE,31,4.0,12.0,34,0.00,,,0.00,34.000000,,2013-05-24 02:32:00,
2013-05-23 21:42:00,58.0,30.0,-100.00,NNE,31,4.0,12.0,34,0.00,,,0.00,34.000000,,2013-05-24 02:42:00,
2013-05-23 22:11:00,55.0,29.0,-100.00,North,8,4.0,8.0,37,0.00,,,0.00,1.000000,,2013-05-24 03:11:00,
2013-05-23 22:22:00,55.0,29.0,-100.00,North,8,4.0,8.0,37,0.00,,,0.00,1.000000,,2013-05-24 03:22:00,
2013-05-23 22:33:00,55.0,29.0,-100.00,North,8,4.0,8.0,37,0.00,,,0.00,1.000000,,2013-05-24 03:33:00,
2013-05-23 22:42:00,55.0,29.0,-100.00,North,8,4.0,8.0,37,0.00,,,0.00,1.000000,,2013-05-24 03:42:00,
2013-05-23 23:12:00,52.0,33.0,-100.00,ENE,68,5.0,6.0,48,0.00,,,0.00,1.000000,,2013-05-24 04:12:00,
2013-05-23 23:22:00,52.0,33.0,-100.00,ENE,68,5.0,6.0,48,0.00,,,0.00,1.000000,,2013-05-24 04:22:00,
2013-05-23 23:33:00,52.0,33.0,-100.00,ENE,68,5.0,6.0,48,0.00,,,0.00,1.000000,,2013-05-24 04:33:00,
2013-05-23 23:42:00,52.0,33.0,-100.00,ENE,68,5.0,6.0,48,0.00,,,0.00,1.000000,,2013-05-24 04:42:00,